Mount Liberty, Ohio
Current Conditions -  °F | °C
As of 5:16 PM on Wednesday 28 Jan 2015 (Local Time) from K4I3 Reporting Station
Clear Clear  
Wind Chill: 18°   Ceiling: Unl
Heat Index: 25°   Visibility: 10mi
Dew Point: 12°   Wind: 6mph
Humidity: 59%   Direction: 160°SSE
Pressure: 30.27"   Gusts: NA
Location:  40.35°N, 82.63°W
Report Text: K4I3 282216Z AUTO 16005KT 10SM CLR M04/M11 A3027 RMK AO2
Loading
Personal Weather Stations






























Interactive Weather Map New forecast layout! Learn more

10-Day Weather Forecast

Advertisements
Track Severe Weather on mobile